Terminal Aerodrome Forecast
Issued by NWS

Home | Current Version | Previous Version | Text Only | Print | Product List | Glossary On
Versions: 1 2 3 4 5 6 7 8 9 10 11 12 13 14 15 16 17
953
FTUS41 KBGM 100337 AAA
TAFITH
TAF AMD
KITH 100337Z 1004/1024 VRB03KT 2SM -SN BKN015 OVC050
      TEMPO 1004/1005 P6SM BKN025
     FM100500 VRB03KT P6SM BKN025 OVC050
     FM101200 23008KT 2SM -SN OVC015=

USA.gov is the U.S. government's official web portal to all federal, state and local government web resources and services.